sensor_id;sensor_type;location;lat;lon;timestamp;temperature;humidity
25192;DHT22;13143;50.924;5.320;2022-12-16T00:00:25;-0.50;99.90
25192;DHT22;13143;50.924;5.320;2022-12-16T00:02:51;-0.50;99.90
25192;DHT22;13143;50.924;5.320;2022-12-16T00:05:17;-0.50;99.90
25192;DHT22;13143;50.924;5.320;2022-12-16T00:07:45;-0.60;99.90
25192;DHT22;13143;50.924;5.320;2022-12-16T00:10:11;-0.60;99.90
25192;DHT22;13143;50.924;5.320;2022-12-16T00:12:37;-0.60;99.90
25192;DHT22;13143;50.924;5.320;2022-12-16T00:15:03;-0.60;99.90
25192;DHT22;13143;50.924;5.320;2022-12-16T00:17:29;-0.60;99.90
25192;DHT22;13143;50.924;5.320;2022-12-16T00:19:54;-0.60;99.90
25192;DHT22;13143;50.924;5.320;2022-12-16T00:22:21;-0.60;99.90
25192;DHT22;13143;50.924;5.320;2022-12-16T00:24:46;-0.60;99.90
25192;DHT22;13143;50.924;5.320;2022-12-16T00:27:12;-0.60;99.90
25192;DHT22;13143;50.924;5.320;2022-12-16T00:29:37;-0.60;99.90
25192;DHT22;13143;50.924;5.320;2022-12-16T00:32:03;-0.60;99.90
25192;DHT22;13143;50.924;5.320;2022-12-16T00:34:30;-0.60;99.90
25192;DHT22;13143;50.924;5.320;2022-12-16T00:36:57;-0.70;99.90
25192;DHT22;13143;50.924;5.320;2022-12-16T00:39:23;-0.60;99.90
25192;DHT22;13143;50.924;5.320;2022-12-16T00:41:49;-0.60;99.90
25192;DHT22;13143;50.924;5.320;2022-12-16T00:44:15;-0.70;99.90
25192;DHT22;13143;50.924;5.320;2022-12-16T00:46:41;-0.60;99.90
25192;DHT22;13143;50.924;5.320;2022-12-16T00:49:07;-0.60;99.90
25192;DHT22;13143;50.924;5.320;2022-12-16T00:51:32;-0.60;99.90
25192;DHT22;13143;50.924;5.320;2022-12-16T00:53:58;-0.60;99.90
25192;DHT22;13143;50.924;5.320;2022-12-16T00:56:24;-0.60;99.90
25192;DHT22;13143;50.924;5.320;2022-12-16T00:58:49;-0.60;99.90
25192;DHT22;13143;50.924;5.320;2022-12-16T01:01:15;-0.60;99.90
25192;DHT22;13143;50.924;5.320;2022-12-16T01:03:41;-0.60;99.90
25192;DHT22;13143;50.924;5.320;2022-12-16T01:06:08;-0.60;99.90
25192;DHT22;13143;50.924;5.320;2022-12-16T01:08:34;-0.60;99.90
25192;DHT22;13143;50.924;5.320;2022-12-16T01:11:00;-0.60;99.90
25192;DHT22;13143;50.924;5.320;2022-12-16T01:13:26;-0.60;99.90
25192;DHT22;13143;50.924;5.320;2022-12-16T01:15:51;-0.60;99.90
25192;DHT22;13143;50.924;5.320;2022-12-16T01:18:17;-0.60;99.90
25192;DHT22;13143;50.924;5.320;2022-12-16T01:20:43;-0.60;99.90
25192;DHT22;13143;50.924;5.320;2022-12-16T01:23:09;-0.60;99.90
25192;DHT22;13143;50.924;5.320;2022-12-16T01:25:34;-0.60;99.90
25192;DHT22;13143;50.924;5.320;2022-12-16T01:28:00;-0.50;99.90
25192;DHT22;13143;50.924;5.320;2022-12-16T01:30:26;-0.60;99.90
25192;DHT22;13143;50.924;5.320;2022-12-16T01:32:51;-0.60;99.90
25192;DHT22;13143;50.924;5.320;2022-12-16T01:35:17;-0.60;99.90
25192;DHT22;13143;50.924;5.320;2022-12-16T01:37:43;-0.60;99.90
25192;DHT22;13143;50.924;5.320;2022-12-16T01:40:19;-0.60;99.90
25192;DHT22;13143;50.924;5.320;2022-12-16T01:42:45;-0.60;99.90
25192;DHT22;13143;50.924;5.320;2022-12-16T01:45:32;-0.50;99.90
25192;DHT22;13143;50.924;5.320;2022-12-16T01:48:20;-0.50;99.90
25192;DHT22;13143;50.924;5.320;2022-12-16T01:50:47;-0.50;99.90
25192;DHT22;13143;50.924;5.320;2022-12-16T01:53:14;-0.60;99.90
25192;DHT22;13143;50.924;5.320;2022-12-16T01:55:47;-0.60;99.90
25192;DHT22;13143;50.924;5.320;2022-12-16T01:58:14;-0.50;99.90
25192;DHT22;13143;50.924;5.320;2022-12-16T02:00:42;-0.60;99.90
25192;DHT22;13143;50.924;5.320;2022-12-16T02:03:09;-0.60;99.90
25192;DHT22;13143;50.924;5.320;2022-12-16T02:05:38;-0.60;99.90
25192;DHT22;13143;50.924;5.320;2022-12-16T02:11:01;-0.60;99.90
25192;DHT22;13143;50.924;5.320;2022-12-16T02:24:51;-0.60;99.90
25192;DHT22;13143;50.924;5.320;2022-12-16T02:33:42;-0.50;99.90
25192;DHT22;13143;50.924;5.320;2022-12-16T02:44:10;-0.50;99.90
25192;DHT22;13143;50.924;5.320;2022-12-16T02:46:53;-0.50;99.90
25192;DHT22;13143;50.924;5.320;2022-12-16T02:51:48;-0.50;99.90
25192;DHT22;13143;50.924;5.320;2022-12-16T02:54:14;-0.50;99.90
25192;DHT22;13143;50.924;5.320;2022-12-16T03:02:29;-0.50;99.90
25192;DHT22;13143;50.924;5.320;2022-12-16T03:05:45;-0.50;99.90
25192;DHT22;13143;50.924;5.320;2022-12-16T03:07:53;-0.50;99.90
25192;DHT22;13143;50.924;5.320;2022-12-16T03:10:26;-0.50;99.90
25192;DHT22;13143;50.924;5.320;2022-12-16T03:12:53;-0.50;99.90
25192;DHT22;13143;50.924;5.320;2022-12-16T03:15:22;-0.50;99.90
25192;DHT22;13143;50.924;5.320;2022-12-16T03:17:51;-0.50;99.90
25192;DHT22;13143;50.924;5.320;2022-12-16T03:20:25;-0.50;99.90
25192;DHT22;13143;50.924;5.320;2022-12-16T03:22:53;-0.50;99.90
25192;DHT22;13143;50.924;5.320;2022-12-16T03:25:22;-0.50;99.90
25192;DHT22;13143;50.924;5.320;2022-12-16T03:30:43;-0.50;99.90
25192;DHT22;13143;50.924;5.320;2022-12-16T03:33:34;-0.50;99.90
25192;DHT22;13143;50.924;5.320;2022-12-16T03:36:08;-0.50;99.90
25192;DHT22;13143;50.924;5.320;2022-12-16T03:38:36;-0.50;99.90
25192;DHT22;13143;50.924;5.320;2022-12-16T03:41:03;-0.50;99.90
25192;DHT22;13143;50.924;5.320;2022-12-16T03:43:30;-0.50;99.90
25192;DHT22;13143;50.924;5.320;2022-12-16T03:45:59;-0.50;99.90
25192;DHT22;13143;50.924;5.320;2022-12-16T03:48:27;-0.50;99.90
25192;DHT22;13143;50.924;5.320;2022-12-16T03:50:52;-0.50;99.90
25192;DHT22;13143;50.924;5.320;2022-12-16T03:53:18;-0.50;99.90
25192;DHT22;13143;50.924;5.320;2022-12-16T03:55:43;-0.50;99.90
25192;DHT22;13143;50.924;5.320;2022-12-16T03:58:09;-0.50;99.90
25192;DHT22;13143;50.924;5.320;2022-12-16T04:00:35;-0.50;99.90
25192;DHT22;13143;50.924;5.320;2022-12-16T04:03:00;-0.50;99.90
25192;DHT22;13143;50.924;5.320;2022-12-16T04:05:26;-0.50;99.90
25192;DHT22;13143;50.924;5.320;2022-12-16T04:07:52;-0.50;99.90
25192;DHT22;13143;50.924;5.320;2022-12-16T04:10:18;-0.50;99.90
25192;DHT22;13143;50.924;5.320;2022-12-16T04:13:08;-0.50;99.90
25192;DHT22;13143;50.924;5.320;2022-12-16T04:15:52;-0.50;99.90
25192;DHT22;13143;50.924;5.320;2022-12-16T04:18:36;-0.50;99.90
25192;DHT22;13143;50.924;5.320;2022-12-16T04:21:21;-0.40;99.90
25192;DHT22;13143;50.924;5.320;2022-12-16T04:24:11;-0.40;99.90
25192;DHT22;13143;50.924;5.320;2022-12-16T04:26:44;-0.40;99.90
25192;DHT22;13143;50.924;5.320;2022-12-16T04:29:29;-0.40;99.90
25192;DHT22;13143;50.924;5.320;2022-12-16T04:31:54;-0.40;99.90
25192;DHT22;13143;50.924;5.320;2022-12-16T04:34:21;-0.40;99.90
25192;DHT22;13143;50.924;5.320;2022-12-16T04:36:58;-0.40;99.90
25192;DHT22;13143;50.924;5.320;2022-12-16T04:39:43;-0.40;99.90
25192;DHT22;13143;50.924;5.320;2022-12-16T04:42:28;-0.40;99.90
25192;DHT22;13143;50.924;5.320;2022-12-16T04:45:12;-0.40;99.90
25192;DHT22;13143;50.924;5.320;2022-12-16T04:47:57;-0.40;99.90
25192;DHT22;13143;50.924;5.320;2022-12-16T04:50:41;-0.40;99.90
25192;DHT22;13143;50.924;5.320;2022-12-16T04:53:26;-0.40;99.90
25192;DHT22;13143;50.924;5.320;2022-12-16T04:56:10;-0.40;99.90
25192;DHT22;13143;50.924;5.320;2022-12-16T04:58:55;-0.40;99.90
25192;DHT22;13143;50.924;5.320;2022-12-16T05:01:39;-0.40;99.90
25192;DHT22;13143;50.924;5.320;2022-12-16T05:04:23;-0.40;99.90
25192;DHT22;13143;50.924;5.320;2022-12-16T05:07:08;-0.40;99.90
25192;DHT22;13143;50.924;5.320;2022-12-16T05:09:52;-0.30;99.90
25192;DHT22;13143;50.924;5.320;2022-12-16T05:12:36;-0.30;99.90
25192;DHT22;13143;50.924;5.320;2022-12-16T05:15:20;-0.30;99.90
25192;DHT22;13143;50.924;5.320;2022-12-16T05:18:13;-0.30;99.90
25192;DHT22;13143;50.924;5.320;2022-12-16T05:21:04;-0.30;99.90
25192;DHT22;13143;50.924;5.320;2022-12-16T05:23:49;-0.30;99.90
25192;DHT22;13143;50.924;5.320;2022-12-16T05:26:33;-0.30;99.90
25192;DHT22;13143;50.924;5.320;2022-12-16T05:29:17;-0.30;99.90
25192;DHT22;13143;50.924;5.320;2022-12-16T05:32:02;-0.30;99.90
25192;DHT22;13143;50.924;5.320;2022-12-16T05:34:46;-0.30;99.90
25192;DHT22;13143;50.924;5.320;2022-12-16T05:37:30;-0.30;99.90
25192;DHT22;13143;50.924;5.320;2022-12-16T05:40:14;-0.30;99.90
25192;DHT22;13143;50.924;5.320;2022-12-16T05:42:59;-0.20;99.90
25192;DHT22;13143;50.924;5.320;2022-12-16T05:45:43;-0.20;99.90
25192;DHT22;13143;50.924;5.320;2022-12-16T05:48:27;-0.20;99.90
25192;DHT22;13143;50.924;5.320;2022-12-16T05:51:11;-0.30;99.90
25192;DHT22;13143;50.924;5.320;2022-12-16T05:53:55;-0.20;99.90
25192;DHT22;13143;50.924;5.320;2022-12-16T05:56:40;-0.20;99.90
25192;DHT22;13143;50.924;5.320;2022-12-16T05:59:24;-0.20;99.90
25192;DHT22;13143;50.924;5.320;2022-12-16T06:02:08;-0.20;99.90
25192;DHT22;13143;50.924;5.320;2022-12-16T06:04:53;-0.20;99.90
25192;DHT22;13143;50.924;5.320;2022-12-16T06:07:37;-0.20;99.90
25192;DHT22;13143;50.924;5.320;2022-12-16T06:10:21;-0.20;99.90
25192;DHT22;13143;50.924;5.320;2022-12-16T06:13:05;-0.20;99.90
25192;DHT22;13143;50.924;5.320;2022-12-16T06:15:50;-0.20;99.90
25192;DHT22;13143;50.924;5.320;2022-12-16T06:18:34;-0.20;99.90
25192;DHT22;13143;50.924;5.320;2022-12-16T06:21:18;-0.20;99.90
25192;DHT22;13143;50.924;5.320;2022-12-16T06:24:03;-0.20;99.90
25192;DHT22;13143;50.924;5.320;2022-12-16T06:26:47;-0.20;99.90
25192;DHT22;13143;50.924;5.320;2022-12-16T06:29:31;-0.10;99.90
25192;DHT22;13143;50.924;5.320;2022-12-16T06:32:15;-0.10;99.90
25192;DHT22;13143;50.924;5.320;2022-12-16T06:35:00;-0.10;99.90
25192;DHT22;13143;50.924;5.320;2022-12-16T06:37:47;-0.10;99.90
25192;DHT22;13143;50.924;5.320;2022-12-16T06:40:32;-0.10;99.90
25192;DHT22;13143;50.924;5.320;2022-12-16T06:43:16;-0.10;99.90
25192;DHT22;13143;50.924;5.320;2022-12-16T06:46:00;-0.10;99.90
25192;DHT22;13143;50.924;5.320;2022-12-16T06:48:44;-0.10;99.90
25192;DHT22;13143;50.924;5.320;2022-12-16T06:51:29;0.00;99.90
25192;DHT22;13143;50.924;5.320;2022-12-16T06:54:13;0.00;99.90
25192;DHT22;13143;50.924;5.320;2022-12-16T06:56:57;0.00;99.90
25192;DHT22;13143;50.924;5.320;2022-12-16T06:59:41;0.00;99.90
25192;DHT22;13143;50.924;5.320;2022-12-16T07:02:26;0.00;99.90
25192;DHT22;13143;50.924;5.320;2022-12-16T07:05:10;0.00;99.90
25192;DHT22;13143;50.924;5.320;2022-12-16T07:07:54;0.00;99.90
25192;DHT22;13143;50.924;5.320;2022-12-16T07:10:38;0.00;99.90
25192;DHT22;13143;50.924;5.320;2022-12-16T07:13:22;0.00;99.90
25192;DHT22;13143;50.924;5.320;2022-12-16T07:16:07;0.00;99.90
25192;DHT22;13143;50.924;5.320;2022-12-16T07:18:51;0.10;99.90
25192;DHT22;13143;50.924;5.320;2022-12-16T07:21:35;0.10;99.90
25192;DHT22;13143;50.924;5.320;2022-12-16T07:24:19;0.10;99.90
25192;DHT22;13143;50.924;5.320;2022-12-16T07:27:03;0.10;99.90
25192;DHT22;13143;50.924;5.320;2022-12-16T07:29:48;0.10;99.90
25192;DHT22;13143;50.924;5.320;2022-12-16T07:32:32;0.10;99.90
25192;DHT22;13143;50.924;5.320;2022-12-16T07:35:16;0.10;99.90
25192;DHT22;13143;50.924;5.320;2022-12-16T07:38:01;0.20;99.90
25192;DHT22;13143;50.924;5.320;2022-12-16T07:40:46;0.10;99.90
25192;DHT22;13143;50.924;5.320;2022-12-16T07:43:30;0.20;99.90
25192;DHT22;13143;50.924;5.320;2022-12-16T07:46:15;0.20;99.90
25192;DHT22;13143;50.924;5.320;2022-12-16T07:48:59;0.20;99.90
25192;DHT22;13143;50.924;5.320;2022-12-16T07:51:43;0.20;99.90
25192;DHT22;13143;50.924;5.320;2022-12-16T07:54:27;0.20;99.90
25192;DHT22;13143;50.924;5.320;2022-12-16T07:57:11;0.20;99.90
25192;DHT22;13143;50.924;5.320;2022-12-16T07:59:56;0.20;99.90
25192;DHT22;13143;50.924;5.320;2022-12-16T08:02:40;0.30;99.90
25192;DHT22;13143;50.924;5.320;2022-12-16T08:05:24;0.20;99.90
25192;DHT22;13143;50.924;5.320;2022-12-16T08:08:08;0.30;99.90
25192;DHT22;13143;50.924;5.320;2022-12-16T08:10:53;0.30;99.90
25192;DHT22;13143;50.924;5.320;2022-12-16T08:13:37;0.30;99.90
25192;DHT22;13143;50.924;5.320;2022-12-16T08:16:21;0.30;99.90
25192;DHT22;13143;50.924;5.320;2022-12-16T08:19:05;0.30;99.90
25192;DHT22;13143;50.924;5.320;2022-12-16T08:21:50;0.30;99.90
25192;DHT22;13143;50.924;5.320;2022-12-16T08:24:34;0.30;99.90
25192;DHT22;13143;50.924;5.320;2022-12-16T08:27:18;0.40;99.90
25192;DHT22;13143;50.924;5.320;2022-12-16T08:30:03;0.40;99.90
25192;DHT22;13143;50.924;5.320;2022-12-16T08:32:47;0.40;99.90
25192;DHT22;13143;50.924;5.320;2022-12-16T08:35:31;0.40;99.90
25192;DHT22;13143;50.924;5.320;2022-12-16T08:38:16;0.40;99.90
25192;DHT22;13143;50.924;5.320;2022-12-16T08:41:00;0.40;99.90
25192;DHT22;13143;50.924;5.320;2022-12-16T08:43:44;0.40;99.90
25192;DHT22;13143;50.924;5.320;2022-12-16T08:46:28;0.40;99.90
25192;DHT22;13143;50.924;5.320;2022-12-16T08:49:13;0.40;99.90
25192;DHT22;13143;50.924;5.320;2022-12-16T08:51:57;0.40;99.90
25192;DHT22;13143;50.924;5.320;2022-12-16T08:54:41;0.40;99.90
25192;DHT22;13143;50.924;5.320;2022-12-16T08:57:25;0.50;99.90
25192;DHT22;13143;50.924;5.320;2022-12-16T09:00:10;0.50;99.90
25192;DHT22;13143;50.924;5.320;2022-12-16T09:02:56;0.50;99.90
25192;DHT22;13143;50.924;5.320;2022-12-16T09:05:40;0.50;99.90
25192;DHT22;13143;50.924;5.320;2022-12-16T09:08:24;0.50;99.90
25192;DHT22;13143;50.924;5.320;2022-12-16T09:11:08;0.50;99.90
25192;DHT22;13143;50.924;5.320;2022-12-16T09:13:52;0.50;99.90
25192;DHT22;13143;50.924;5.320;2022-12-16T09:16:36;0.50;99.90
25192;DHT22;13143;50.924;5.320;2022-12-16T09:19:21;0.60;99.90
25192;DHT22;13143;50.924;5.320;2022-12-16T09:22:05;0.60;99.90
25192;DHT22;13143;50.924;5.320;2022-12-16T09:24:49;0.60;99.90
25192;DHT22;13143;50.924;5.320;2022-12-16T09:27:34;0.60;99.90
25192;DHT22;13143;50.924;5.320;2022-12-16T09:30:18;0.60;99.90
25192;DHT22;13143;50.924;5.320;2022-12-16T09:33:02;0.60;99.90
25192;DHT22;13143;50.924;5.320;2022-12-16T09:35:47;0.60;99.90
25192;DHT22;13143;50.924;5.320;2022-12-16T09:38:31;0.70;99.90
25192;DHT22;13143;50.924;5.320;2022-12-16T09:44:23;0.70;99.90
25192;DHT22;13143;50.924;5.320;2022-12-16T09:47:56;0.70;99.90
25192;DHT22;13143;50.924;5.320;2022-12-16T09:50:43;0.70;99.90
25192;DHT22;13143;50.924;5.320;2022-12-16T09:53:31;0.70;99.90
25192;DHT22;13143;50.924;5.320;2022-12-16T09:56:20;0.70;99.90
25192;DHT22;13143;50.924;5.320;2022-12-16T09:59:10;0.80;99.90
25192;DHT22;13143;50.924;5.320;2022-12-16T10:01:55;0.70;99.90
25192;DHT22;13143;50.924;5.320;2022-12-16T10:04:39;0.80;99.90
25192;DHT22;13143;50.924;5.320;2022-12-16T10:07:27;0.80;99.90
25192;DHT22;13143;50.924;5.320;2022-12-16T10:10:37;0.80;99.90
25192;DHT22;13143;50.924;5.320;2022-12-16T10:16:39;0.80;99.90
25192;DHT22;13143;50.924;5.320;2022-12-16T10:22:49;0.90;99.90
25192;DHT22;13143;50.924;5.320;2022-12-16T10:25:49;0.90;99.90
25192;DHT22;13143;50.924;5.320;2022-12-16T10:28:43;0.90;99.90
25192;DHT22;13143;50.924;5.320;2022-12-16T10:31:28;0.90;99.90
25192;DHT22;13143;50.924;5.320;2022-12-16T10:34:20;0.90;99.90
25192;DHT22;13143;50.924;5.320;2022-12-16T10:37:12;0.90;99.90
25192;DHT22;13143;50.924;5.320;2022-12-16T10:39:59;1.00;99.90
25192;DHT22;13143;50.924;5.320;2022-12-16T10:43:01;1.00;99.90
25192;DHT22;13143;50.924;5.320;2022-12-16T10:45:50;1.00;99.90
25192;DHT22;13143;50.924;5.320;2022-12-16T10:48:35;1.00;99.90
25192;DHT22;13143;50.924;5.320;2022-12-16T10:51:21;1.00;99.90
25192;DHT22;13143;50.924;5.320;2022-12-16T10:54:34;1.00;99.90
25192;DHT22;13143;50.924;5.320;2022-12-16T10:57:44;1.10;99.90
25192;DHT22;13143;50.924;5.320;2022-12-16T11:00:51;1.10;99.90
25192;DHT22;13143;50.924;5.320;2022-12-16T11:03:39;1.10;99.90
25192;DHT22;13143;50.924;5.320;2022-12-16T11:06:38;1.10;99.90
25192;DHT22;13143;50.924;5.320;2022-12-16T11:09:33;1.20;99.90
25192;DHT22;13143;50.924;5.320;2022-12-16T11:12:28;1.20;99.90
25192;DHT22;13143;50.924;5.320;2022-12-16T11:15:30;1.20;99.90
25192;DHT22;13143;50.924;5.320;2022-12-16T11:18:15;1.20;99.90
25192;DHT22;13143;50.924;5.320;2022-12-16T11:24:16;1.20;99.90
25192;DHT22;13143;50.924;5.320;2022-12-16T11:27:03;1.20;99.90
25192;DHT22;13143;50.924;5.320;2022-12-16T11:32:34;1.30;99.90
25192;DHT22;13143;50.924;5.320;2022-12-16T11:35:23;1.30;99.90
25192;DHT22;13143;50.924;5.320;2022-12-16T11:38:24;1.30;99.90
25192;DHT22;13143;50.924;5.320;2022-12-16T11:42:00;1.30;99.90
25192;DHT22;13143;50.924;5.320;2022-12-16T11:50:16;1.40;99.90
25192;DHT22;13143;50.924;5.320;2022-12-16T11:53:01;1.40;99.90
25192;DHT22;13143;50.924;5.320;2022-12-16T11:55:51;1.40;99.90
25192;DHT22;13143;50.924;5.320;2022-12-16T11:59:00;1.40;99.90
25192;DHT22;13143;50.924;5.320;2022-12-16T12:01:55;1.40;99.90
25192;DHT22;13143;50.924;5.320;2022-12-16T12:04:41;1.50;99.90
25192;DHT22;13143;50.924;5.320;2022-12-16T12:14:05;1.50;99.90
25192;DHT22;13143;50.924;5.320;2022-12-16T12:17:09;1.50;99.90
25192;DHT22;13143;50.924;5.320;2022-12-16T12:22:44;1.60;99.90
25192;DHT22;13143;50.924;5.320;2022-12-16T12:25:36;1.60;99.90
25192;DHT22;13143;50.924;5.320;2022-12-16T12:37:35;1.70;99.90
25192;DHT22;13143;50.924;5.320;2022-12-16T12:43:40;1.70;99.90
25192;DHT22;13143;50.924;5.320;2022-12-16T12:46:34;1.70;99.90
25192;DHT22;13143;50.924;5.320;2022-12-16T12:49:28;1.70;99.90
25192;DHT22;13143;50.924;5.320;2022-12-16T12:55:27;1.80;99.90
25192;DHT22;13143;50.924;5.320;2022-12-16T12:58:16;1.80;99.90
25192;DHT22;13143;50.924;5.320;2022-12-16T13:01:02;1.80;99.90
25192;DHT22;13143;50.924;5.320;2022-12-16T13:03:54;1.80;99.90
25192;DHT22;13143;50.924;5.320;2022-12-16T13:06:39;1.90;99.90
25192;DHT22;13143;50.924;5.320;2022-12-16T13:09:31;1.90;99.90
25192;DHT22;13143;50.924;5.320;2022-12-16T13:12:23;1.90;99.90
25192;DHT22;13143;50.924;5.320;2022-12-16T13:15:37;1.90;99.90
25192;DHT22;13143;50.924;5.320;2022-12-16T13:18:31;1.90;99.90
25192;DHT22;13143;50.924;5.320;2022-12-16T13:27:12;2.00;99.90
25192;DHT22;13143;50.924;5.320;2022-12-16T13:32:55;2.00;99.90
25192;DHT22;13143;50.924;5.320;2022-12-16T13:35:57;2.00;99.90
25192;DHT22;13143;50.924;5.320;2022-12-16T13:38:49;2.00;99.90
25192;DHT22;13143;50.924;5.320;2022-12-16T13:53:21;2.10;99.90
25192;DHT22;13143;50.924;5.320;2022-12-16T13:56:06;2.10;99.90
25192;DHT22;13143;50.924;5.320;2022-12-16T13:58:53;2.10;99.90
25192;DHT22;13143;50.924;5.320;2022-12-16T14:01:53;2.10;99.90
25192;DHT22;13143;50.924;5.320;2022-12-16T14:04:50;2.20;99.90
25192;DHT22;13143;50.924;5.320;2022-12-16T14:07:38;2.20;99.90
25192;DHT22;13143;50.924;5.320;2022-12-16T14:10:37;2.20;99.90
25192;DHT22;13143;50.924;5.320;2022-12-16T14:13:32;2.20;99.90
25192;DHT22;13143;50.924;5.320;2022-12-16T14:22:49;2.20;99.90
25192;DHT22;13143;50.924;5.320;2022-12-16T14:25:35;2.30;99.90
25192;DHT22;13143;50.924;5.320;2022-12-16T14:28:35;2.30;99.90
25192;DHT22;13143;50.924;5.320;2022-12-16T14:31:34;2.30;99.90
25192;DHT22;13143;50.924;5.320;2022-12-16T14:34:28;2.30;99.90
25192;DHT22;13143;50.924;5.320;2022-12-16T14:40:02;2.30;99.90
25192;DHT22;13143;50.924;5.320;2022-12-16T14:42:51;2.30;99.90
25192;DHT22;13143;50.924;5.320;2022-12-16T14:45:37;2.30;99.90
25192;DHT22;13143;50.924;5.320;2022-12-16T14:48:37;2.30;99.90
25192;DHT22;13143;50.924;5.320;2022-12-16T14:51:22;2.40;99.90
25192;DHT22;13143;50.924;5.320;2022-12-16T14:57:02;2.40;99.90
25192;DHT22;13143;50.924;5.320;2022-12-16T14:59:46;2.40;99.90
25192;DHT22;13143;50.924;5.320;2022-12-16T15:02:34;2.40;99.90
25192;DHT22;13143;50.924;5.320;2022-12-16T15:05:27;2.40;99.90
25192;DHT22;13143;50.924;5.320;2022-12-16T15:08:13;2.40;99.90
25192;DHT22;13143;50.924;5.320;2022-12-16T15:10:58;2.40;99.90
25192;DHT22;13143;50.924;5.320;2022-12-16T15:13:42;2.40;99.90
25192;DHT22;13143;50.924;5.320;2022-12-16T15:16:31;2.40;99.90
25192;DHT22;13143;50.924;5.320;2022-12-16T15:19:20;2.40;99.90
25192;DHT22;13143;50.924;5.320;2022-12-16T15:22:08;2.40;99.90
25192;DHT22;13143;50.924;5.320;2022-12-16T15:24:55;2.50;99.90
25192;DHT22;13143;50.924;5.320;2022-12-16T15:27:39;2.50;99.90
25192;DHT22;13143;50.924;5.320;2022-12-16T15:30:43;2.50;99.90
25192;DHT22;13143;50.924;5.320;2022-12-16T15:33:36;2.50;99.90
25192;DHT22;13143;50.924;5.320;2022-12-16T15:39:23;2.50;99.90
25192;DHT22;13143;50.924;5.320;2022-12-16T15:42:28;2.50;99.90
25192;DHT22;13143;50.924;5.320;2022-12-16T15:45:30;2.50;99.90
25192;DHT22;13143;50.924;5.320;2022-12-16T15:48:31;2.50;99.90
25192;DHT22;13143;50.924;5.320;2022-12-16T15:51:30;2.40;99.90
25192;DHT22;13143;50.924;5.320;2022-12-16T15:54:19;2.50;99.90
25192;DHT22;13143;50.924;5.320;2022-12-16T16:00:32;2.50;99.90
25192;DHT22;13143;50.924;5.320;2022-12-16T16:03:25;2.50;99.90
25192;DHT22;13143;50.924;5.320;2022-12-16T16:06:21;2.50;99.90
25192;DHT22;13143;50.924;5.320;2022-12-16T16:09:24;2.50;99.90
25192;DHT22;13143;50.924;5.320;2022-12-16T16:12:11;2.40;99.90
25192;DHT22;13143;50.924;5.320;2022-12-16T16:14:55;2.50;99.90
25192;DHT22;13143;50.924;5.320;2022-12-16T16:17:39;2.50;99.90
25192;DHT22;13143;50.924;5.320;2022-12-16T16:20:23;2.50;99.90
25192;DHT22;13143;50.924;5.320;2022-12-16T16:23:09;2.50;99.90
25192;DHT22;13143;50.924;5.320;2022-12-16T16:25:53;2.50;99.90
25192;DHT22;13143;50.924;5.320;2022-12-16T16:28:38;2.40;99.90
25192;DHT22;13143;50.924;5.320;2022-12-16T16:31:22;2.50;99.90
25192;DHT22;13143;50.924;5.320;2022-12-16T16:34:06;2.50;99.90
25192;DHT22;13143;50.924;5.320;2022-12-16T16:36:53;2.50;99.90
25192;DHT22;13143;50.924;5.320;2022-12-16T16:39:38;2.40;99.90
25192;DHT22;13143;50.924;5.320;2022-12-16T16:42:23;2.50;99.90
25192;DHT22;13143;50.924;5.320;2022-12-16T16:45:07;2.50;99.90
25192;DHT22;13143;50.924;5.320;2022-12-16T16:47:56;2.50;99.90
25192;DHT22;13143;50.924;5.320;2022-12-16T16:50:44;2.40;99.90
25192;DHT22;13143;50.924;5.320;2022-12-16T16:53:29;2.40;99.90
25192;DHT22;13143;50.924;5.320;2022-12-16T16:56:13;2.40;99.90
25192;DHT22;13143;50.924;5.320;2022-12-16T16:58:57;2.40;99.90
25192;DHT22;13143;50.924;5.320;2022-12-16T17:01:41;2.40;99.90
25192;DHT22;13143;50.924;5.320;2022-12-16T17:04:26;2.40;99.90
25192;DHT22;13143;50.924;5.320;2022-12-16T17:07:10;2.40;99.90
25192;DHT22;13143;50.924;5.320;2022-12-16T17:09:54;2.40;99.90
25192;DHT22;13143;50.924;5.320;2022-12-16T17:12:40;2.40;99.90
25192;DHT22;13143;50.924;5.320;2022-12-16T17:15:30;2.40;99.90
25192;DHT22;13143;50.924;5.320;2022-12-16T17:18:15;2.40;99.90
25192;DHT22;13143;50.924;5.320;2022-12-16T17:20:59;2.40;99.90
25192;DHT22;13143;50.924;5.320;2022-12-16T17:23:44;2.40;99.90
25192;DHT22;13143;50.924;5.320;2022-12-16T17:26:28;2.40;99.90
25192;DHT22;13143;50.924;5.320;2022-12-16T17:29:23;2.40;99.90
25192;DHT22;13143;50.924;5.320;2022-12-16T17:32:08;2.40;99.90
25192;DHT22;13143;50.924;5.320;2022-12-16T17:34:52;2.40;99.90
25192;DHT22;13143;50.924;5.320;2022-12-16T17:37:37;2.40;99.90
25192;DHT22;13143;50.924;5.320;2022-12-16T17:40:21;2.40;99.90
25192;DHT22;13143;50.924;5.320;2022-12-16T17:43:05;2.40;99.90
25192;DHT22;13143;50.924;5.320;2022-12-16T17:46:05;2.40;99.90
25192;DHT22;13143;50.924;5.320;2022-12-16T17:48:56;2.40;99.90
25192;DHT22;13143;50.924;5.320;2022-12-16T17:51:41;2.40;99.90
25192;DHT22;13143;50.924;5.320;2022-12-16T17:54:25;2.40;99.90
25192;DHT22;13143;50.924;5.320;2022-12-16T17:57:10;2.40;99.90
25192;DHT22;13143;50.924;5.320;2022-12-16T17:59:55;2.40;99.90
25192;DHT22;13143;50.924;5.320;2022-12-16T18:02:39;2.40;99.90
25192;DHT22;13143;50.924;5.320;2022-12-16T18:05:24;2.40;99.90
25192;DHT22;13143;50.924;5.320;2022-12-16T18:08:09;2.40;99.90
25192;DHT22;13143;50.924;5.320;2022-12-16T18:10:55;2.40;99.90
25192;DHT22;13143;50.924;5.320;2022-12-16T18:13:39;2.40;99.90
25192;DHT22;13143;50.924;5.320;2022-12-16T18:16:23;2.40;99.90
25192;DHT22;13143;50.924;5.320;2022-12-16T18:19:11;2.40;99.90
25192;DHT22;13143;50.924;5.320;2022-12-16T18:21:55;2.40;99.90
25192;DHT22;13143;50.924;5.320;2022-12-16T18:24:39;2.40;99.90
25192;DHT22;13143;50.924;5.320;2022-12-16T18:27:23;2.40;99.90
25192;DHT22;13143;50.924;5.320;2022-12-16T18:30:08;2.40;99.90
25192;DHT22;13143;50.924;5.320;2022-12-16T18:32:52;2.40;99.90
25192;DHT22;13143;50.924;5.320;2022-12-16T18:35:36;2.40;99.90
25192;DHT22;13143;50.924;5.320;2022-12-16T18:38:21;2.40;99.90
25192;DHT22;13143;50.924;5.320;2022-12-16T18:41:12;2.40;99.90
25192;DHT22;13143;50.924;5.320;2022-12-16T18:43:57;2.40;99.90
25192;DHT22;13143;50.924;5.320;2022-12-16T18:46:41;2.40;99.90
25192;DHT22;13143;50.924;5.320;2022-12-16T18:49:25;2.40;99.90
25192;DHT22;13143;50.924;5.320;2022-12-16T18:52:09;2.40;99.90
25192;DHT22;13143;50.924;5.320;2022-12-16T18:54:53;2.40;99.90
25192;DHT22;13143;50.924;5.320;2022-12-16T18:57:37;2.40;99.90
25192;DHT22;13143;50.924;5.320;2022-12-16T19:00:22;2.40;99.90
25192;DHT22;13143;50.924;5.320;2022-12-16T19:03:06;2.40;99.90
25192;DHT22;13143;50.924;5.320;2022-12-16T19:05:54;2.40;99.90
25192;DHT22;13143;50.924;5.320;2022-12-16T19:08:39;2.40;99.90
25192;DHT22;13143;50.924;5.320;2022-12-16T19:11:23;2.40;99.90
25192;DHT22;13143;50.924;5.320;2022-12-16T19:14:07;2.40;99.90
25192;DHT22;13143;50.924;5.320;2022-12-16T19:16:51;2.40;99.90
25192;DHT22;13143;50.924;5.320;2022-12-16T19:19:36;2.40;99.90
25192;DHT22;13143;50.924;5.320;2022-12-16T19:22:20;2.40;99.90
25192;DHT22;13143;50.924;5.320;2022-12-16T19:25:05;2.40;99.90